Menahga, MN

12:22 PM CST on November 28, 2014 (GMT -0600)
Wadena Municipal | Change Station
CLOSE
Current Station
Airport
Location: Wadena,
Elevation: 1371 ft
Nearby Weather Stations

Elev 1371 ft 46.45 °N, 95.21 °W | Updated 7 minutes ago

Overcast
Overcast
12 °F
Feels Like 1 °F
N
8
Wind Variable Wind from East

Today
High -- | Low -- °F
--% Chance of Precip.
Yesterday
High -- | Low -- °F
Precip. -- in
7:40 AM 4:35 PM
Waxing Crescent, 42% visible
Pressure 29.84 in
Visibility 10.0 miles
Clouds Scattered Clouds 1100 ft
Mostly Cloudy 4600 ft
Overcast 6000 ft
Windchill 1 °F
Dew Point 7 °F
Humidity 79%
Rainfall 0.02 in
Snow Depth Not available.
UV 1 out of 12
Pollen .10 out of 12
Air Quality Not available.
Flu Activity Not available.
METAR KADC 281815Z AUTO 10007KT 10SM SCT011 BKN046 OVC060 M11/M14 A2984 RMK AO2

More Conditions Fewer Conditions

Pressure 29.84 in
Visibility 10.0 miles
Clouds Scattered Clouds 1100 ft
Mostly Cloudy 4600 ft
Overcast 6000 ft
Windchill 1 °F
Dew Point 7 °F
Humidity 79%
Rainfall 0.02 in
Snow Depth Not available.
UV 1 out of 12
Pollen .10 out of 12
Air Quality Not available.
Flu Activity Not available.
METAR KADC 281815Z AUTO 10007KT 10SM SCT011 BKN046 OVC060 M11/M14 A2984 RMK AO2

More Conditions Fewer Conditions

10-Day Weather Forecast

Almanac

Astronomy

Nov. 28, 2014 Rise Set
Actual Time
Civil Twilight
Nautical Twilight
Astronomical Twilight
Moon
Length of Visible Light
Length of Day
Tomorrow will be .
, % of the Moon is Illuminated

Today's Extremes

State Highs State Lows

Community

WunderPhotos

Upload Photos

1,774,251 photos uploaded!

WunderBlogs® & News

Nearby

Air Quality

  Air Quality AQ Index Pollutant
Not available.

Snow Depth

Station Depth Elevation

Earthquake Activity

City Distance Mag. Time & Date
Minimum magnitude displayed is 2.5.

Coastal Water Temperatures

Place Temperature

Nearby Weather Stations